createdAt,value
2019-05-19T00:01:59.650Z,7.63
2019-05-19T00:04:28.075Z,7.57
2019-05-19T00:06:56.474Z,7.50
2019-05-19T00:09:24.906Z,8.07
2019-05-19T00:11:53.478Z,7.40
2019-05-19T00:14:21.944Z,7.60
2019-05-19T00:16:50.438Z,7.53
2019-05-19T00:19:26.582Z,8.40
2019-05-19T00:21:49.017Z,8.40
2019-05-19T00:24:17.433Z,8.40
2019-05-19T00:26:45.864Z,8.47
2019-05-19T00:29:14.438Z,8.87
2019-05-19T00:31:42.858Z,8.93
2019-05-19T00:34:11.278Z,8.80
2019-05-19T00:36:39.768Z,9.70
2019-05-19T00:39:08.226Z,9.20
2019-05-19T00:41:36.709Z,10.33
2019-05-19T00:44:05.296Z,11.27
2019-05-19T00:46:33.736Z,10.77
2019-05-19T00:49:02.472Z,10.43
2019-05-19T00:51:31.357Z,14.13
2019-05-19T00:53:59.922Z,10.97
2019-05-19T00:56:28.498Z,11.37
2019-05-19T00:58:58.610Z,11.30
2019-05-19T01:01:27.075Z,11.03
2019-05-19T01:03:55.563Z,10.83
2019-05-19T01:06:24.124Z,11.17
2019-05-19T01:08:52.544Z,11.10
2019-05-19T01:11:20.977Z,11.50
2019-05-19T01:13:49.455Z,10.63
2019-05-19T01:16:17.965Z,11.00
2019-05-19T01:18:46.462Z,10.50
2019-05-19T01:21:15.435Z,10.97
2019-05-19T01:23:43.880Z,11.03
2019-05-19T01:26:12.365Z,11.10
2019-05-19T01:28:40.851Z,10.70
2019-05-19T01:31:09.268Z,10.90
2019-05-19T01:33:37.746Z,10.70
2019-05-19T01:36:06.256Z,11.00
2019-05-19T01:38:34.729Z,11.03
2019-05-19T01:41:03.308Z,11.43
2019-05-19T01:43:31.804Z,10.57
2019-05-19T01:46:00.250Z,10.90
2019-05-19T01:48:28.698Z,10.87
2019-05-19T01:50:57.125Z,9.70
2019-05-19T01:53:25.525Z,9.67
2019-05-19T01:55:53.953Z,8.90
2019-05-19T01:58:22.388Z,8.20
2019-05-19T02:00:50.955Z,7.97
2019-05-19T02:03:19.348Z,7.80
2019-05-19T02:05:47.828Z,7.90
2019-05-19T02:08:16.224Z,6.83
2019-05-19T02:10:44.636Z,6.50
2019-05-19T02:13:13.064Z,5.77
2019-05-19T02:15:41.582Z,6.00
2019-05-19T02:18:10.044Z,5.97
2019-05-19T02:20:38.460Z,6.47
2019-05-19T02:23:06.985Z,5.80
2019-05-19T02:25:35.416Z,5.43
2019-05-19T02:28:03.822Z,5.00
2019-05-19T02:30:32.258Z,5.40
2019-05-19T02:33:00.691Z,4.53
2019-05-19T02:35:29.207Z,5.60
2019-05-19T02:37:57.694Z,5.03
2019-05-19T02:40:26.253Z,4.93
2019-05-19T02:42:55.998Z,5.40
2019-05-19T02:45:27.829Z,5.00
2019-05-19T02:47:57.806Z,4.50
2019-05-19T02:50:26.886Z,4.80
2019-05-19T02:52:57.442Z,5.60
2019-05-19T02:55:26.858Z,5.43
2019-05-19T02:57:56.208Z,4.90
2019-05-19T03:00:36.233Z,6.00
2019-05-19T03:03:04.698Z,5.13
2019-05-19T03:05:33.140Z,5.07
2019-05-19T03:08:01.643Z,4.47
2019-05-19T03:10:30.448Z,5.60
2019-05-19T03:12:58.941Z,5.50
2019-05-19T03:15:27.439Z,5.40
2019-05-19T03:17:55.907Z,4.77
2019-05-19T03:20:24.320Z,5.73
2019-05-19T03:22:52.750Z,5.03
2019-05-19T03:25:21.224Z,5.33
2019-05-19T03:27:49.681Z,5.13
2019-05-19T03:30:28.825Z,5.50
2019-05-19T03:33:08.289Z,5.93
2019-05-19T03:35:36.731Z,6.73
2019-05-19T03:38:05.143Z,5.73
2019-05-19T03:40:33.671Z,6.27
2019-05-19T03:43:02.153Z,6.23
2019-05-19T03:45:30.564Z,7.30
2019-05-19T03:47:59.080Z,6.13
2019-05-19T03:50:27.524Z,6.57
2019-05-19T03:52:56.008Z,6.20
2019-05-19T03:55:24.597Z,6.53
2019-05-19T03:57:52.984Z,5.73
2019-05-19T04:00:22.151Z,5.57
2019-05-19T04:02:50.672Z,6.27
2019-05-19T04:05:19.172Z,6.00
2019-05-19T04:07:47.609Z,5.87
2019-05-19T04:10:16.225Z,6.77
2019-05-19T04:12:44.637Z,7.00
2019-05-19T04:15:13.779Z,6.23
2019-05-19T04:17:42.300Z,6.40
2019-05-19T04:20:11.067Z,6.27
2019-05-19T04:22:39.622Z,6.47
2019-05-19T04:25:08.487Z,6.53
2019-05-19T04:27:36.911Z,6.37
2019-05-19T04:30:09.290Z,7.30
2019-05-19T04:32:37.786Z,6.60
2019-05-19T04:35:07.808Z,6.67
2019-05-19T04:37:36.276Z,7.00
2019-05-19T04:40:06.093Z,6.80
2019-05-19T04:42:34.544Z,6.67
2019-05-19T04:45:03.017Z,6.90
2019-05-19T04:47:31.403Z,6.70
2019-05-19T04:49:59.853Z,7.03
2019-05-19T04:52:28.379Z,6.73
2019-05-19T04:54:56.818Z,7.23
2019-05-19T04:57:25.260Z,6.90
2019-05-19T04:59:53.697Z,7.33
2019-05-19T05:02:22.228Z,7.17
2019-05-19T05:04:50.723Z,7.13
2019-05-19T05:07:19.190Z,7.60
2019-05-19T05:09:47.639Z,8.03
2019-05-19T05:12:16.041Z,7.93
2019-05-19T05:14:44.467Z,8.43
2019-05-19T05:17:12.917Z,7.80
2019-05-19T05:19:41.420Z,8.60
2019-05-19T05:22:21.325Z,8.37
2019-05-19T05:24:40.017Z,8.20
2019-05-19T05:27:08.467Z,8.30
2019-05-19T05:29:36.873Z,8.10
2019-05-19T05:32:05.455Z,8.10
2019-05-19T05:34:33.894Z,7.93
2019-05-19T05:37:02.409Z,9.13
2019-05-19T05:39:30.801Z,9.03
2019-05-19T05:41:59.239Z,8.43
2019-05-19T05:44:27.715Z,8.23
2019-05-19T05:46:56.258Z,7.40
2019-05-19T05:49:24.698Z,7.17
2019-05-19T05:51:53.147Z,7.77
2019-05-19T05:54:21.563Z,7.10
2019-05-19T05:56:49.998Z,7.37
2019-05-19T05:59:18.422Z,7.80
2019-05-19T06:01:46.940Z,8.07
2019-05-19T06:04:15.424Z,8.43
2019-05-19T06:06:45.811Z,8.30
2019-05-19T06:09:14.084Z,8.53
2019-05-19T06:11:42.517Z,9.80
2019-05-19T06:14:10.956Z,9.23
2019-05-19T06:16:39.366Z,8.70
2019-05-19T06:19:07.900Z,9.20
2019-05-19T06:21:36.367Z,9.80
2019-05-19T06:24:04.923Z,10.10
2019-05-19T06:26:33.387Z,11.03
2019-05-19T06:29:02.012Z,10.50
2019-05-19T06:31:30.409Z,9.97
2019-05-19T06:33:58.940Z,10.67
2019-05-19T06:36:27.349Z,11.73
2019-05-19T06:38:56.270Z,11.20
2019-05-19T06:41:25.123Z,11.90
2019-05-19T06:43:53.578Z,11.37
2019-05-19T06:46:22.069Z,11.23
2019-05-19T06:48:50.585Z,13.03
2019-05-19T06:51:21.735Z,11.27
2019-05-19T06:53:50.147Z,12.10
2019-05-19T06:56:18.731Z,12.57
2019-05-19T06:58:47.159Z,13.63
2019-05-19T07:01:15.614Z,12.17
2019-05-19T07:03:44.091Z,12.57
2019-05-19T07:06:12.741Z,13.07
2019-05-19T07:08:41.231Z,11.27
2019-05-19T07:11:09.655Z,12.30
2019-05-19T07:13:38.195Z,13.00
2019-05-19T07:16:06.669Z,14.27
2019-05-19T07:18:35.131Z,12.63
2019-05-19T07:21:05.081Z,12.73
2019-05-19T07:23:33.581Z,11.27
2019-05-19T07:26:02.006Z,12.07
2019-05-19T07:28:30.499Z,11.03
2019-05-19T07:30:58.940Z,12.00
2019-05-19T07:33:27.441Z,12.00
2019-05-19T07:35:55.985Z,11.93
2019-05-19T07:38:24.493Z,11.67
2019-05-19T07:40:52.906Z,11.23
2019-05-19T07:43:21.657Z,11.30
2019-05-19T07:45:50.153Z,9.50
2019-05-19T07:48:18.573Z,9.83
2019-05-19T07:50:47.007Z,8.97
2019-05-19T07:53:15.531Z,9.63
2019-05-19T07:55:43.979Z,10.00
2019-05-19T07:58:12.544Z,9.47
2019-05-19T08:00:41.010Z,8.03
2019-05-19T08:03:09.632Z,8.23
2019-05-19T08:05:38.032Z,9.03
2019-05-19T08:08:06.531Z,8.00
2019-05-19T08:10:35.031Z,10.27
2019-05-19T08:13:03.585Z,9.30
2019-05-19T08:15:32.097Z,9.93
2019-05-19T08:18:00.648Z,10.00
2019-05-19T08:20:29.076Z,9.17
2019-05-19T08:22:57.546Z,9.13
2019-05-19T08:25:26.065Z,9.87
2019-05-19T08:27:54.563Z,9.40
2019-05-19T08:30:23.047Z,9.20
2019-05-19T08:32:51.566Z,10.40
2019-05-19T08:35:20.015Z,9.10
2019-05-19T08:37:48.431Z,9.70
2019-05-19T08:40:16.945Z,9.70
2019-05-19T08:42:45.367Z,8.70
2019-05-19T08:45:14.124Z,10.17
2019-05-19T08:47:42.579Z,8.90
2019-05-19T08:50:12.117Z,9.17
2019-05-19T08:52:40.544Z,9.20
2019-05-19T08:55:09.105Z,9.07
2019-05-19T08:57:40.027Z,9.53
2019-05-19T09:00:09.013Z,9.70
2019-05-19T09:02:37.445Z,8.50
2019-05-19T09:05:07.129Z,8.90
2019-05-19T09:07:35.556Z,8.80
2019-05-19T09:10:06.522Z,7.50
2019-05-19T09:12:34.964Z,8.40
2019-05-19T09:15:03.434Z,7.53
2019-05-19T09:17:31.877Z,6.93
2019-05-19T09:20:00.447Z,7.00
2019-05-19T09:22:28.854Z,6.23
2019-05-19T09:24:57.459Z,7.67
2019-05-19T09:27:25.864Z,9.20
2019-05-19T09:29:54.277Z,8.57
2019-05-19T09:32:22.783Z,7.90
2019-05-19T09:34:51.213Z,7.50
2019-05-19T09:37:19.624Z,6.87
2019-05-19T09:39:48.154Z,6.07
2019-05-19T09:42:16.614Z,6.50
2019-05-19T09:44:45.107Z,6.10
2019-05-19T09:47:13.528Z,4.70
2019-05-19T09:49:41.955Z,4.07
2019-05-19T09:52:10.365Z,5.40
2019-05-19T09:54:45.418Z,4.80
2019-05-19T09:57:08.949Z,5.57
2019-05-19T09:59:37.359Z,6.00
2019-05-19T10:02:05.853Z,14.23
2019-05-19T10:04:34.311Z,17.47
2019-05-19T10:07:03.991Z,8.93
2019-05-19T10:09:55.799Z,21.10
2019-05-19T10:12:24.220Z,8.00
2019-05-19T10:14:52.909Z,7.57
2019-05-19T10:17:21.411Z,6.97
2019-05-19T10:19:49.978Z,8.03
2019-05-19T10:22:21.495Z,8.73
2019-05-19T10:25:10.459Z,7.67
2019-05-19T10:27:21.773Z,8.33
2019-05-19T10:29:50.469Z,6.70
2019-05-19T10:32:18.985Z,7.83
2019-05-19T10:34:47.453Z,7.10
2019-05-19T10:37:15.929Z,6.57
2019-05-19T10:39:44.373Z,5.77
2019-05-19T10:42:12.849Z,4.77
2019-05-19T10:44:41.262Z,5.00
2019-05-19T10:47:09.681Z,16.67
2019-05-19T10:49:38.457Z,4.70
2019-05-19T10:52:06.937Z,8.63
2019-05-19T10:54:35.376Z,5.37
2019-05-19T10:57:03.792Z,5.47
2019-05-19T10:59:32.224Z,3.63
2019-05-19T11:02:00.616Z,3.57
2019-05-19T11:04:29.105Z,3.33
2019-05-19T11:06:57.549Z,3.50
2019-05-19T11:09:25.960Z,3.30
2019-05-19T11:11:54.507Z,2.90
2019-05-19T11:14:25.785Z,3.03
2019-05-19T11:16:54.304Z,3.20
2019-05-19T11:19:22.723Z,3.20
2019-05-19T11:21:51.123Z,3.03
2019-05-19T11:24:19.548Z,3.10
2019-05-19T11:26:47.957Z,3.33
2019-05-19T11:29:16.409Z,2.70
2019-05-19T11:31:44.827Z,4.37
2019-05-19T11:34:13.283Z,4.20
2019-05-19T11:36:41.686Z,4.00
2019-05-19T11:39:10.155Z,3.07
2019-05-19T11:41:38.723Z,2.73
2019-05-19T11:44:07.186Z,2.47
2019-05-19T11:46:35.703Z,2.20
2019-05-19T11:49:04.093Z,2.53
2019-05-19T11:51:32.598Z,2.33
2019-05-19T11:54:00.948Z,2.30
2019-05-19T11:56:29.440Z,2.70
2019-05-19T11:58:57.951Z,2.80
2019-05-19T12:01:26.444Z,2.03
2019-05-19T12:03:55.552Z,2.43
2019-05-19T12:06:38.087Z,2.60
2019-05-19T12:08:54.322Z,2.57
2019-05-19T12:11:22.786Z,2.47
2019-05-19T12:13:51.325Z,2.80
2019-05-19T12:16:19.729Z,2.80
2019-05-19T12:18:48.125Z,3.00
2019-05-19T12:21:16.558Z,2.60
2019-05-19T12:23:44.993Z,2.63
2019-05-19T12:26:22.847Z,1.97
2019-05-19T12:28:43.576Z,2.30
2019-05-19T12:31:12.011Z,2.83
2019-05-19T12:33:51.634Z,2.53
2019-05-19T12:36:10.603Z,2.53
2019-05-19T12:38:39.050Z,2.43
2019-05-19T12:41:07.632Z,2.90
2019-05-19T12:43:36.079Z,2.80
2019-05-19T12:46:14.868Z,2.90
2019-05-19T12:48:34.910Z,2.80
2019-05-19T12:51:03.373Z,2.63
2019-05-19T12:53:31.783Z,2.80
2019-05-19T12:56:00.232Z,2.73
2019-05-19T12:58:28.669Z,3.20
2019-05-19T13:00:57.077Z,3.20
2019-05-19T13:03:25.586Z,3.33
2019-05-19T13:05:54.026Z,3.40
2019-05-19T13:08:22.435Z,3.07
2019-05-19T13:10:52.304Z,3.10
2019-05-19T13:13:20.758Z,3.30
2019-05-19T13:15:49.237Z,3.60
2019-05-19T13:18:17.662Z,3.60
2019-05-19T13:20:46.079Z,3.10
2019-05-19T13:23:14.493Z,3.27
2019-05-19T13:25:42.905Z,3.80
2019-05-19T13:28:11.334Z,3.40
2019-05-19T13:30:39.760Z,2.93
2019-05-19T13:33:08.288Z,3.50
2019-05-19T13:35:36.721Z,3.80
2019-05-19T13:38:05.124Z,3.37
2019-05-19T13:40:33.555Z,3.80
2019-05-19T13:43:02.364Z,3.53
2019-05-19T13:45:30.852Z,3.77
2019-05-19T13:47:59.356Z,4.10
2019-05-19T13:50:27.835Z,3.57
2019-05-19T13:52:56.320Z,3.90
2019-05-19T13:55:24.798Z,3.70
2019-05-19T13:57:55.527Z,3.60
2019-05-19T14:00:27.914Z,3.87
2019-05-19T14:02:56.331Z,4.50
2019-05-19T14:05:24.726Z,3.53
2019-05-19T14:07:53.163Z,3.30
2019-05-19T14:10:21.630Z,4.00
2019-05-19T14:12:50.104Z,4.17
2019-05-19T14:15:18.674Z,3.87
2019-05-19T14:17:47.092Z,3.60
2019-05-19T14:20:15.701Z,3.93
2019-05-19T14:22:44.140Z,4.20
2019-05-19T14:25:13.071Z,5.30
2019-05-19T14:27:41.632Z,4.50
2019-05-19T14:30:11.699Z,3.20
2019-05-19T14:32:40.225Z,4.37
2019-05-19T14:35:09.460Z,3.50
2019-05-19T14:37:37.881Z,3.90
2019-05-19T14:40:07.255Z,4.13
2019-05-19T14:42:49.465Z,3.03
2019-05-19T14:45:18.987Z,3.13
2019-05-19T14:47:47.560Z,3.20
2019-05-19T14:50:16.833Z,3.70
2019-05-19T14:52:45.330Z,3.60
2019-05-19T14:55:14.421Z,3.20
2019-05-19T14:57:45.283Z,3.20
2019-05-19T15:00:13.930Z,4.33
2019-05-19T15:02:42.331Z,3.37
2019-05-19T15:05:11.278Z,3.40
2019-05-19T15:07:39.702Z,3.20
2019-05-19T15:10:08.481Z,3.07
2019-05-19T15:12:36.908Z,3.90
2019-05-19T15:15:07.875Z,3.83
2019-05-19T15:17:36.354Z,3.43
2019-05-19T15:20:09.741Z,3.13
2019-05-19T15:22:38.142Z,3.30
2019-05-19T15:25:07.478Z,3.40
2019-05-19T15:27:36.080Z,3.57
2019-05-19T15:30:12.851Z,3.43
2019-05-19T15:32:36.307Z,3.40
2019-05-19T15:35:06.716Z,3.30
2019-05-19T15:37:35.821Z,3.57
2019-05-19T15:40:09.786Z,3.23
2019-05-19T15:42:38.215Z,3.57
2019-05-19T15:45:07.659Z,2.97
2019-05-19T15:47:36.141Z,3.00
2019-05-19T15:50:07.386Z,3.67
2019-05-19T15:52:35.812Z,3.00
2019-05-19T15:55:05.670Z,2.97
2019-05-19T15:57:34.406Z,2.97
2019-05-19T16:00:04.594Z,2.90
2019-05-19T16:02:33.121Z,3.00
2019-05-19T16:05:01.771Z,2.90
2019-05-19T16:07:30.492Z,3.10
2019-05-19T16:09:58.980Z,2.77
2019-05-19T16:12:27.383Z,3.10
2019-05-19T16:14:55.914Z,3.07
2019-05-19T16:17:24.375Z,3.23
2019-05-19T16:19:52.806Z,3.20
2019-05-19T16:22:21.267Z,3.03
2019-05-19T16:24:49.855Z,3.17
2019-05-19T16:27:18.248Z,3.70
2019-05-19T16:29:46.769Z,2.93
2019-05-19T16:32:15.266Z,2.97
2019-05-19T16:34:43.847Z,3.40
2019-05-19T16:37:12.253Z,3.10
2019-05-19T16:39:40.973Z,2.93
2019-05-19T16:42:09.443Z,3.40
2019-05-19T16:44:37.846Z,2.87
2019-05-19T16:47:06.246Z,3.50
2019-05-19T16:49:34.671Z,3.47
2019-05-19T16:52:03.114Z,2.93
2019-05-19T16:54:33.363Z,3.27
2019-05-19T16:57:01.866Z,3.10
2019-05-19T16:59:30.272Z,3.07
2019-05-19T17:01:59.260Z,3.60
2019-05-19T17:04:29.672Z,3.13
2019-05-19T17:06:58.094Z,2.83
2019-05-19T17:09:26.636Z,5.77
2019-05-19T17:11:55.039Z,7.73
2019-05-19T17:14:23.564Z,7.43
2019-05-19T17:16:52.083Z,5.20
2019-05-19T17:19:20.591Z,7.80
2019-05-19T17:21:49.240Z,8.10
2019-05-19T17:24:17.713Z,15.03
2019-05-19T17:26:46.113Z,26.97
2019-05-19T17:29:14.639Z,9.27
2019-05-19T17:31:43.110Z,8.83
2019-05-19T17:34:11.612Z,4.70
2019-05-19T17:36:40.125Z,5.47
2019-05-19T17:39:08.662Z,5.93
2019-05-19T17:41:37.135Z,6.37
2019-05-19T17:44:05.636Z,5.13
2019-05-19T17:46:34.178Z,4.70
2019-05-19T17:49:02.757Z,4.43
2019-05-19T17:51:31.196Z,5.00
2019-05-19T17:53:59.745Z,5.63
2019-05-19T17:56:29.164Z,5.53
2019-05-19T17:58:58.140Z,4.17
2019-05-19T18:01:26.745Z,5.20
2019-05-19T18:03:55.187Z,5.10
2019-05-19T18:06:23.660Z,4.23
2019-05-19T18:08:52.062Z,4.77
2019-05-19T18:11:20.685Z,5.00
2019-05-19T18:13:49.100Z,4.97
2019-05-19T18:16:17.522Z,4.10
2019-05-19T18:18:45.981Z,3.73
2019-05-19T18:21:14.376Z,3.60
2019-05-19T18:23:42.982Z,4.30
2019-05-19T18:26:11.474Z,3.43
2019-05-19T18:28:39.908Z,3.93
2019-05-19T18:31:08.360Z,3.87
2019-05-19T18:33:36.884Z,4.13
2019-05-19T18:36:05.318Z,3.10
2019-05-19T18:38:33.767Z,2.93
2019-05-19T18:41:02.178Z,3.47
2019-05-19T18:43:30.636Z,3.30
2019-05-19T18:45:59.040Z,3.10
2019-05-19T18:48:27.531Z,3.47
2019-05-19T18:50:55.957Z,3.47
2019-05-19T18:53:24.450Z,3.60
2019-05-19T18:55:52.961Z,3.27
2019-05-19T18:58:21.459Z,2.87
2019-05-19T19:00:49.947Z,2.97
2019-05-19T19:03:18.556Z,2.90
2019-05-19T19:05:47.653Z,3.23
2019-05-19T19:08:16.068Z,2.73
2019-05-19T19:10:44.758Z,2.80
2019-05-19T19:13:13.152Z,3.00
2019-05-19T19:15:41.590Z,3.17
2019-05-19T19:18:10.120Z,3.40
2019-05-19T19:20:38.815Z,3.23
2019-05-19T19:23:07.322Z,3.20
2019-05-19T19:25:35.698Z,3.23
2019-05-19T19:28:04.280Z,3.00
2019-05-19T19:30:32.688Z,3.30
2019-05-19T19:33:01.139Z,3.57
2019-05-19T19:35:38.632Z,3.50
2019-05-19T19:37:59.901Z,3.50
2019-05-19T19:40:30.819Z,3.58
2019-05-19T19:43:00.668Z,3.87
2019-05-19T19:45:29.860Z,3.83
2019-05-19T19:48:01.564Z,3.90
2019-05-19T19:50:30.477Z,3.90
2019-05-19T19:52:58.893Z,3.70
2019-05-19T19:55:27.464Z,3.97
2019-05-19T19:57:56.066Z,3.40
2019-05-19T20:00:30.253Z,5.00
2019-05-19T20:02:58.719Z,5.13
2019-05-19T20:05:27.167Z,4.80
2019-05-19T20:07:55.683Z,4.17
2019-05-19T20:10:24.108Z,3.93
2019-05-19T20:12:52.516Z,4.00
2019-05-19T20:15:20.964Z,3.57
2019-05-19T20:17:49.358Z,4.13
2019-05-19T20:20:17.899Z,3.67
2019-05-19T20:22:46.331Z,4.10
2019-05-19T20:25:14.721Z,4.07
2019-05-19T20:27:43.623Z,3.70
2019-05-19T20:30:12.034Z,3.57
2019-05-19T20:32:40.438Z,3.80
2019-05-19T20:35:09.195Z,3.40
2019-05-19T20:37:37.596Z,3.87
2019-05-19T20:40:11.022Z,3.50
2019-05-19T20:42:39.436Z,3.87
2019-05-19T20:45:08.182Z,3.40
2019-05-19T20:47:36.703Z,3.20
2019-05-19T20:50:06.686Z,3.73
2019-05-19T20:52:35.097Z,3.70
2019-05-19T20:55:04.268Z,4.00
2019-05-19T20:57:32.732Z,3.63
2019-05-19T21:00:01.210Z,3.20
2019-05-19T21:02:29.663Z,3.30
2019-05-19T21:04:58.092Z,3.60
2019-05-19T21:07:26.501Z,3.93
2019-05-19T21:09:54.932Z,3.70
2019-05-19T21:12:23.472Z,4.10
2019-05-19T21:14:51.886Z,3.50
2019-05-19T21:17:20.420Z,3.73
2019-05-19T21:19:48.816Z,3.77
2019-05-19T21:22:17.249Z,4.20
2019-05-19T21:24:45.690Z,3.77
2019-05-19T21:27:14.513Z,4.33
2019-05-19T21:29:42.940Z,4.17
2019-05-19T21:32:11.491Z,4.13
2019-05-19T21:34:39.922Z,3.67
2019-05-19T21:37:08.501Z,3.90
2019-05-19T21:39:37.016Z,4.17
2019-05-19T21:42:05.538Z,4.07
2019-05-19T21:44:33.988Z,3.80
2019-05-19T21:47:02.522Z,4.30
2019-05-19T21:49:30.926Z,4.70
2019-05-19T21:51:59.337Z,4.67
2019-05-19T21:54:27.924Z,3.80
2019-05-19T21:56:56.349Z,4.10
2019-05-19T21:59:24.750Z,3.60
2019-05-19T22:01:53.416Z,3.80
2019-05-19T22:04:21.841Z,3.83
2019-05-19T22:06:52.000Z,3.63
2019-05-19T22:09:20.472Z,3.97
2019-05-19T22:11:48.929Z,4.07
2019-05-19T22:14:17.375Z,3.60
2019-05-19T22:16:45.819Z,3.50
2019-05-19T22:19:15.949Z,3.80
2019-05-19T22:21:46.600Z,4.23
2019-05-19T22:24:15.055Z,4.00
2019-05-19T22:26:43.443Z,3.63
2019-05-19T22:29:11.871Z,3.33
2019-05-19T22:31:40.464Z,3.93
2019-05-19T22:34:08.859Z,3.50
2019-05-19T22:36:37.297Z,3.30
2019-05-19T22:39:06.887Z,3.23
2019-05-19T22:41:35.345Z,3.57
2019-05-19T22:44:03.883Z,3.60
2019-05-19T22:46:32.299Z,3.03
2019-05-19T22:49:00.898Z,3.20
2019-05-19T22:51:29.311Z,3.43
2019-05-19T22:53:57.759Z,3.40
2019-05-19T22:56:26.213Z,3.30
2019-05-19T22:58:54.607Z,3.53
2019-05-19T23:01:26.075Z,3.67
2019-05-19T23:03:54.399Z,3.43
2019-05-19T23:06:22.822Z,3.50
2019-05-19T23:08:51.326Z,3.33
2019-05-19T23:11:19.851Z,3.67
2019-05-19T23:13:48.317Z,3.50
2019-05-19T23:16:16.821Z,3.60
2019-05-19T23:18:45.313Z,2.90
2019-05-19T23:21:13.757Z,3.50
2019-05-19T23:23:42.172Z,2.97
2019-05-19T23:26:10.650Z,3.27
2019-05-19T23:28:39.101Z,3.43
2019-05-19T23:31:07.531Z,3.23
2019-05-19T23:33:35.941Z,3.40
2019-05-19T23:36:04.393Z,3.10
2019-05-19T23:38:33.007Z,3.00
2019-05-19T23:41:01.498Z,3.60
2019-05-19T23:43:29.947Z,3.70
2019-05-19T23:45:58.368Z,3.27
2019-05-19T23:48:26.773Z,3.43
2019-05-19T23:50:55.201Z,3.30
2019-05-19T23:53:23.639Z,3.60
2019-05-19T23:55:52.069Z,3.83
2019-05-19T23:58:20.457Z,4.10
